Time;durP1;ratioP1;P1;durP2;ratioP2;P2;SDS_P1;SDS_P2;PMS_P1;PMS_P2;Temp;Humidity;BMP_temperature;BMP_pressure;BME280_temperature;BME280_humidity;BME280_pressure;Samples;Min_cycle;Max_cycle;Signal;HPM_P1;HPM_P2
2021/07/13 00:00:42;;;;;;;11.67;5.13;;;17.70;99.90;;;;;;5078721;28;20197;-84
2021/07/13 00:03:09;;;;;;;10.70;5.07;;;17.70;99.90;;;;;;5078677;28;20650;-83
2021/07/13 00:05:37;;;;;;;6.63;5.20;;;17.70;99.90;;;;;;5077655;28;20236;-83
2021/07/13 00:08:04;;;;;;;6.47;4.70;;;17.70;99.90;;;;;;5078382;28;20205;-83
2021/07/13 00:10:33;;;;;;;5.70;4.90;;;17.70;99.90;;;;;;5078499;28;20200;-83
2021/07/13 00:12:59;;;;;;;5.73;5.13;;;17.70;99.90;;;;;;5078493;28;20631;-83
2021/07/13 00:15:27;;;;;;;6.67;5.40;;;17.70;99.90;;;;;;5080563;28;20180;-83
2021/07/13 00:17:55;;;;;;;8.30;5.13;;;17.60;99.90;;;;;;5078910;28;20191;-83
2021/07/13 00:20:21;;;;;;;6.13;4.63;;;17.70;99.90;;;;;;5080288;28;20198;-83
2021/07/13 00:22:48;;;;;;;6.37;4.70;;;17.70;99.90;;;;;;5082884;28;20235;-83
2021/07/13 00:25:15;;;;;;;6.17;5.20;;;17.70;99.90;;;;;;5081927;28;20186;-83
2021/07/13 00:27:41;;;;;;;5.73;5.13;;;17.70;99.90;;;;;;5078160;28;20228;-84
2021/07/13 00:30:09;;;;;;;5.90;4.27;;;17.60;99.90;;;;;;5075778;28;20737;-83
2021/07/13 00:32:35;;;;;;;5.03;4.30;;;17.60;99.90;;;;;;5075748;28;20255;-83
2021/07/13 00:35:01;;;;;;;4.97;4.47;;;17.50;99.90;;;;;;5075145;28;20192;-83
2021/07/13 00:37:26;;;;;;;4.77;4.27;;;17.60;99.90;;;;;;5074662;28;20184;-82
2021/07/13 00:39:52;;;;;;;8.57;4.93;;;17.60;99.90;;;;;;5074937;28;20567;-82
2021/07/13 00:42:18;;;;;;;5.53;4.60;;;17.60;99.90;;;;;;5076224;28;20554;-82
2021/07/13 00:44:46;;;;;;;7.90;4.57;;;17.60;99.90;;;;;;5076883;28;20206;-82
2021/07/13 00:47:12;;;;;;;7.43;4.60;;;17.60;99.90;;;;;;5077892;28;20654;-82
2021/07/13 00:49:39;;;;;;;4.97;4.47;;;17.50;99.90;;;;;;5087804;28;20201;-82
2021/07/13 00:52:05;;;;;;;5.47;4.93;;;17.50;99.90;;;;;;5080037;28;20181;-83
2021/07/13 00:54:32;;;;;;;5.53;4.83;;;17.50;99.90;;;;;;5081484;28;20631;-82
2021/07/13 00:56:58;;;;;;;6.07;4.60;;;17.50;99.90;;;;;;5080356;28;20181;-82
2021/07/13 00:59:24;;;;;;;8.83;5.07;;;17.40;99.90;;;;;;5080540;28;20188;-82
2021/07/13 01:01:50;;;;;;;6.23;4.80;;;17.40;99.90;;;;;;5080664;28;20211;-82
2021/07/13 01:04:18;;;;;;;5.77;4.83;;;17.40;99.90;;;;;;5082020;28;20181;-83
2021/07/13 01:06:57;;;;;;;7.17;5.10;;;17.40;99.90;;;;;;5080726;28;20185;-82
2021/07/13 01:09:38;;;;;;;7.97;5.40;;;17.40;99.90;;;;;;5082532;28;20251;-83
2021/07/13 01:12:33;;;;;;;9.47;6.07;;;17.30;99.90;;;;;;5080742;28;20161;-83
2021/07/13 01:15:02;;;;;;;7.27;5.40;;;17.40;99.90;;;;;;5082691;28;20161;-83
2021/07/13 01:17:48;;;;;;;8.23;6.40;;;17.40;99.90;;;;;;5082383;28;20649;-83
2021/07/13 01:20:26;;;;;;;8.67;6.33;;;17.40;99.90;;;;;;5079981;28;20191;-83
2021/07/13 01:23:02;;;;;;;7.77;5.63;;;17.40;99.90;;;;;;5080371;28;20537;-83
2021/07/13 01:25:41;;;;;;;6.20;5.60;;;17.40;99.90;;;;;;5082017;28;20678;-83
2021/07/13 01:28:14;;;;;;;8.00;5.53;;;17.40;99.90;;;;;;5079951;28;20210;-83
2021/07/13 01:31:03;;;;;;;6.97;5.63;;;17.40;99.90;;;;;;5080100;28;20201;-83
2021/07/13 01:33:31;;;;;;;9.40;5.30;;;17.30;99.90;;;;;;5080925;28;20178;-83
2021/07/13 01:36:07;;;;;;;8.30;5.47;;;17.30;99.90;;;;;;5080225;28;20205;-83
2021/07/13 01:38:37;;;;;;;6.83;5.60;;;17.20;99.90;;;;;;5080610;28;20201;-83
2021/07/13 01:41:07;;;;;;;6.67;5.97;;;17.30;99.90;;;;;;5079831;28;20205;-83
2021/07/13 01:43:36;;;;;;;8.43;6.00;;;17.30;99.90;;;;;;5081320;28;20180;-83
2021/07/13 01:46:03;;;;;;;6.93;6.03;;;17.30;99.90;;;;;;5080046;28;20267;-83
2021/07/13 01:48:30;;;;;;;6.63;5.50;;;17.20;99.90;;;;;;5081987;28;20588;-83
2021/07/13 01:50:58;;;;;;;7.23;5.17;;;17.20;99.90;;;;;;5081952;28;20752;-83
2021/07/13 01:53:28;;;;;;;8.43;5.50;;;17.20;99.90;;;;;;5080234;28;20251;-83
2021/07/13 01:55:55;;;;;;;11.63;5.77;;;17.20;99.90;;;;;;5081014;28;20168;-83
2021/07/13 01:58:25;;;;;;;6.83;5.87;;;17.20;99.90;;;;;;5080813;28;20173;-83
2021/07/13 02:00:53;;;;;;;9.63;6.23;;;17.10;99.90;;;;;;5081177;28;20192;-83
2021/07/13 02:03:23;;;;;;;9.10;6.00;;;17.20;99.90;;;;;;5082707;28;20173;-83
2021/07/13 02:05:49;;;;;;;9.03;6.37;;;17.20;99.90;;;;;;5083219;28;20172;-83
2021/07/13 02:08:15;;;;;;;8.37;6.13;;;17.20;99.90;;;;;;5088266;28;20197;-83
2021/07/13 02:10:41;;;;;;;10.83;6.77;;;17.20;99.90;;;;;;5080567;28;20185;-83
2021/07/13 02:13:10;;;;;;;8.30;6.40;;;17.10;99.90;;;;;;5078068;28;20178;-83
2021/07/13 02:15:37;;;;;;;6.97;6.00;;;17.10;99.90;;;;;;5079224;28;20267;-83
2021/07/13 02:18:03;;;;;;;7.00;6.30;;;17.10;99.90;;;;;;5078881;28;20233;-83
2021/07/13 02:20:28;;;;;;;6.60;5.90;;;17.10;99.90;;;;;;5079837;28;20201;-83
2021/07/13 02:22:54;;;;;;;7.07;6.33;;;17.10;99.90;;;;;;5078625;28;20188;-83
2021/07/13 02:25:20;;;;;;;10.43;6.17;;;17.00;99.90;;;;;;5077984;28;20183;-83
2021/07/13 02:27:54;;;;;;;7.37;6.37;;;17.00;99.90;;;;;;5079499;28;20259;-83
2021/07/13 02:30:20;;;;;;;7.33;6.53;;;17.00;99.90;;;;;;5077185;28;20280;-82
2021/07/13 02:32:55;;;;;;;10.40;6.57;;;17.00;99.90;;;;;;5076855;28;20265;-83
2021/07/13 02:35:31;;;;;;;6.97;5.83;;;16.90;99.90;;;;;;5077356;28;20168;-83
2021/07/13 02:37:57;;;;;;;7.70;6.03;;;16.90;99.90;;;;;;5076944;28;20226;-83
2021/07/13 02:40:23;;;;;;;7.30;5.60;;;16.90;99.90;;;;;;5076107;28;20200;-83
2021/07/13 02:42:49;;;;;;;7.03;5.33;;;16.80;99.90;;;;;;5076980;28;20535;-83
2021/07/13 02:45:16;;;;;;;8.10;5.80;;;16.80;99.90;;;;;;5074922;28;20183;-83
2021/07/13 02:47:45;;;;;;;11.33;6.07;;;16.80;99.90;;;;;;5086547;28;20209;-83
2021/07/13 02:50:13;;;;;;;8.43;5.97;;;16.80;99.90;;;;;;5079104;28;20193;-83
2021/07/13 02:52:40;;;;;;;6.77;5.57;;;16.90;99.90;;;;;;5078650;28;20252;-83
2021/07/13 02:55:14;;;;;;;8.53;6.27;;;16.90;99.90;;;;;;5080093;28;20232;-83
2021/07/13 02:57:42;;;;;;;10.13;6.27;;;16.90;99.90;;;;;;5079018;28;20185;-83
2021/07/13 03:00:09;;;;;;;10.33;7.17;;;16.90;99.90;;;;;;5079524;28;20201;-83
2021/07/13 03:02:36;;;;;;;10.67;6.33;;;16.90;99.90;;;;;;5080819;28;20181;-83
2021/07/13 03:05:04;;;;;;;8.53;6.90;;;16.90;99.90;;;;;;5078770;28;20203;-83
2021/07/13 03:07:32;;;;;;;8.70;5.60;;;16.80;99.90;;;;;;5078945;28;20207;-84
2021/07/13 03:09:58;;;;;;;8.33;5.83;;;16.90;99.90;;;;;;5079709;28;20225;-83
2021/07/13 03:12:24;;;;;;;6.70;6.00;;;16.80;99.90;;;;;;5078512;28;20178;-83
2021/07/13 03:14:52;;;;;;;11.10;6.00;;;16.80;99.90;;;;;;5078216;28;20644;-83
2021/07/13 03:17:20;;;;;;;8.23;5.93;;;16.70;99.90;;;;;;5080113;28;20180;-83
2021/07/13 03:19:45;;;;;;;9.57;6.23;;;16.70;99.90;;;;;;5078031;28;20198;-83
2021/07/13 03:22:26;;;;;;;8.63;6.27;;;16.70;99.90;;;;;;5078805;28;20182;-84
2021/07/13 03:24:53;;;;;;;8.17;6.13;;;16.60;99.90;;;;;;5080142;28;20170;-83
2021/07/13 03:27:21;;;;;;;8.17;5.70;;;16.60;99.90;;;;;;5080264;28;20203;-83
2021/07/13 03:29:48;;;;;;;8.17;6.07;;;16.60;99.90;;;;;;5080371;28;20193;-83
2021/07/13 03:32:17;;;;;;;8.40;6.60;;;16.60;99.90;;;;;;5079412;28;20251;-83
2021/07/13 03:34:44;;;;;;;9.33;6.53;;;16.50;99.90;;;;;;5075983;28;20166;-83
2021/07/13 03:37:10;;;;;;;11.03;7.03;;;16.50;99.90;;;;;;5077216;28;20180;-83
2021/07/13 03:39:37;;;;;;;8.97;6.40;;;16.50;99.90;;;;;;5079610;28;20250;-83
2021/07/13 03:42:03;;;;;;;8.50;6.70;;;16.50;99.90;;;;;;5080786;28;20169;-83
2021/07/13 03:44:29;;;;;;;9.27;6.53;;;16.50;99.90;;;;;;5080582;28;20177;-83
2021/07/13 03:46:55;;;;;;;8.07;6.13;;;16.50;99.90;;;;;;5079317;28;20177;-84
2021/07/13 03:49:24;;;;;;;8.50;7.10;;;16.50;99.90;;;;;;5080206;28;20177;-83
2021/07/13 03:51:50;;;;;;;8.57;6.83;;;16.50;99.90;;;;;;5081784;28;20176;-83
2021/07/13 03:54:18;;;;;;;8.77;6.67;;;16.50;99.90;;;;;;5082855;28;20168;-83
2021/07/13 03:56:46;;;;;;;12.33;7.93;;;16.50;99.90;;;;;;5078733;28;20169;-83
2021/07/13 03:59:12;;;;;;;10.43;7.20;;;16.50;99.90;;;;;;5078718;28;20169;-83
2021/07/13 04:01:39;;;;;;;8.93;7.03;;;16.50;99.90;;;;;;5079724;28;20176;-83
2021/07/13 04:04:05;;;;;;;8.33;7.07;;;16.50;99.90;;;;;;5079756;28;20201;-83
2021/07/13 04:06:31;;;;;;;9.23;8.23;;;16.50;99.90;;;;;;5079386;28;20243;-83
2021/07/13 04:08:57;;;;;;;10.73;7.43;;;16.50;99.90;;;;;;5078090;28;20205;-83
2021/07/13 04:11:23;;;;;;;10.10;7.20;;;16.50;99.90;;;;;;5077715;28;20201;-83
2021/07/13 04:13:49;;;;;;;10.00;7.07;;;16.60;99.90;;;;;;5077682;28;20173;-83
2021/07/13 04:16:15;;;;;;;9.03;7.60;;;16.60;99.90;;;;;;5078347;28;20226;-83
2021/07/13 04:18:41;;;;;;;8.70;7.10;;;16.60;99.90;;;;;;5083098;28;20246;-83
2021/07/13 04:21:06;;;;;;;8.97;7.47;;;16.60;99.90;;;;;;5082261;28;20215;-83
2021/07/13 04:23:34;;;;;;;11.87;7.87;;;16.60;99.90;;;;;;5081523;28;20176;-83
2021/07/13 04:26:00;;;;;;;11.37;7.17;;;16.60;99.90;;;;;;5082288;28;20176;-83
2021/07/13 04:28:30;;;;;;;10.03;7.63;;;16.60;99.90;;;;;;5081344;28;20674;-83
2021/07/13 04:30:57;;;;;;;11.23;7.70;;;16.70;99.90;;;;;;5080161;28;20605;-83
2021/07/13 04:33:23;;;;;;;12.83;6.87;;;16.60;99.90;;;;;;5080492;28;20165;-83
2021/07/13 04:35:49;;;;;;;7.57;6.57;;;16.60;99.90;;;;;;5080704;28;20176;-83
2021/07/13 04:38:15;;;;;;;9.20;6.63;;;16.60;99.90;;;;;;5079769;28;20173;-83
2021/07/13 04:40:40;;;;;;;7.73;5.90;;;16.60;99.90;;;;;;5077878;28;20596;-83
2021/07/13 04:43:06;;;;;;;7.07;6.10;;;16.60;99.90;;;;;;5087519;28;20203;-83
2021/07/13 04:45:32;;;;;;;10.90;6.87;;;16.60;99.90;;;;;;5082901;28;20181;-83
2021/07/13 04:47:57;;;;;;;7.37;5.90;;;16.60;99.90;;;;;;5081048;28;20292;-83
2021/07/13 04:50:23;;;;;;;7.43;6.60;;;16.70;99.90;;;;;;5080055;28;20189;-83
2021/07/13 04:52:49;;;;;;;12.00;6.10;;;16.70;99.90;;;;;;5081029;28;20634;-83
2021/07/13 04:55:17;;;;;;;8.80;6.47;;;16.70;99.90;;;;;;5080590;28;20169;-83
2021/07/13 04:57:46;;;;;;;7.67;6.37;;;16.70;99.90;;;;;;5080634;28;20552;-82
2021/07/13 05:00:14;;;;;;;6.60;5.60;;;16.70;99.90;;;;;;5078324;28;20204;-82
2021/07/13 05:02:40;;;;;;;11.10;5.93;;;16.80;99.90;;;;;;5078671;28;20260;-82
2021/07/13 05:05:10;;;;;;;8.10;5.83;;;16.80;99.90;;;;;;5078975;28;20181;-82
2021/07/13 05:07:43;;;;;;;6.47;5.63;;;16.90;99.90;;;;;;5078927;28;20291;-82
2021/07/13 05:10:15;;;;;;;6.30;5.53;;;16.90;99.90;;;;;;5079823;28;20220;-82
2021/07/13 05:12:42;;;;;;;8.73;5.93;;;16.90;99.90;;;;;;5076512;28;20267;-82
2021/07/13 05:15:10;;;;;;;7.57;5.73;;;16.90;99.90;;;;;;5078518;28;20170;-82
2021/07/13 05:17:38;;;;;;;7.80;6.03;;;16.90;99.90;;;;;;5078370;28;20251;-82
2021/07/13 05:20:06;;;;;;;8.73;6.23;;;16.90;99.90;;;;;;5079646;28;20189;-83
2021/07/13 05:22:32;;;;;;;7.23;5.47;;;16.90;99.90;;;;;;5078479;28;20181;-82
2021/07/13 05:24:58;;;;;;;7.83;5.50;;;16.80;99.90;;;;;;5078964;28;20176;-82
2021/07/13 05:27:24;;;;;;;7.30;6.10;;;16.90;99.90;;;;;;5078793;28;20205;-82
2021/07/13 05:29:50;;;;;;;8.53;6.00;;;16.90;99.90;;;;;;5078637;28;20199;-82
2021/07/13 05:32:16;;;;;;;8.47;5.73;;;16.80;99.90;;;;;;5080201;28;20173;-81
2021/07/13 05:34:43;;;;;;;7.37;6.13;;;16.90;99.90;;;;;;5082199;28;20696;-83
2021/07/13 05:37:09;;;;;;;11.53;6.17;;;16.90;99.90;;;;;;5083746;28;20184;-81
2021/07/13 05:39:35;;;;;;;6.63;5.80;;;16.90;99.90;;;;;;5079007;28;20197;-82
2021/07/13 05:42:00;;;;;;;8.27;5.00;;;16.90;99.90;;;;;;5080766;28;20583;-82
2021/07/13 05:44:26;;;;;;;7.67;6.13;;;16.90;99.90;;;;;;5077454;28;20173;-82
2021/07/13 05:46:52;;;;;;;8.60;6.50;;;16.90;99.90;;;;;;5078371;28;20178;-82
2021/07/13 05:49:17;;;;;;;9.50;6.47;;;17.00;99.90;;;;;;5077353;28;20258;-82
2021/07/13 05:51:44;;;;;;;11.13;6.87;;;17.10;99.90;;;;;;5076785;28;20223;-82
2021/07/13 05:54:10;;;;;;;8.00;6.23;;;17.20;99.90;;;;;;5076599;28;20264;-82
2021/07/13 05:56:37;;;;;;;7.97;5.70;;;17.20;99.90;;;;;;5076527;28;20174;-82
2021/07/13 05:59:03;;;;;;;8.97;5.97;;;17.30;99.90;;;;;;5078500;28;20176;-83
2021/07/13 06:01:28;;;;;;;8.87;5.97;;;17.40;99.90;;;;;;5076594;28;20204;-82
2021/07/13 06:03:54;;;;;;;9.60;6.00;;;17.40;99.90;;;;;;5079326;28;20508;-83
2021/07/13 06:06:20;;;;;;;10.40;6.20;;;17.50;99.90;;;;;;5077673;28;20265;-83
2021/07/13 06:08:45;;;;;;;8.00;6.30;;;17.60;99.90;;;;;;5079123;28;20205;-82
2021/07/13 06:11:11;;;;;;;8.73;6.70;;;17.60;99.90;;;;;;5077104;28;20599;-83
2021/07/13 06:13:36;;;;;;;7.57;6.43;;;17.60;99.90;;;;;;5076579;28;20631;-81
2021/07/13 06:16:03;;;;;;;7.77;6.60;;;17.70;99.90;;;;;;5078788;28;20180;-83
2021/07/13 06:18:28;;;;;;;17.03;8.20;;;17.70;99.90;;;;;;5077190;28;20183;-83
2021/07/13 06:20:54;;;;;;;11.47;8.87;;;17.70;99.90;;;;;;5075794;28;20635;-83
2021/07/13 06:23:19;;;;;;;10.10;8.27;;;17.80;99.90;;;;;;5077315;28;20237;-83
2021/07/13 06:25:45;;;;;;;8.80;7.70;;;18.00;99.90;;;;;;5076888;28;20232;-83
2021/07/13 06:28:11;;;;;;;11.87;8.33;;;18.30;99.90;;;;;;5076432;28;20569;-83
2021/07/13 06:30:38;;;;;;;9.83;8.60;;;18.50;99.90;;;;;;5077265;28;20289;-83
2021/07/13 06:33:03;;;;;;;14.53;8.10;;;18.50;99.90;;;;;;5087194;28;20185;-83
2021/07/13 06:35:29;;;;;;;10.90;7.77;;;18.40;99.90;;;;;;5078601;28;20178;-84
2021/07/13 06:37:57;;;;;;;8.60;7.80;;;18.40;99.90;;;;;;5079279;28;20178;-84
2021/07/13 06:40:23;;;;;;;10.67;8.20;;;18.30;99.90;;;;;;5078022;28;20196;-84
2021/07/13 06:42:49;;;;;;;9.10;8.07;;;18.30;99.90;;;;;;5079090;28;20657;-84
2021/07/13 06:45:14;;;;;;;9.00;8.10;;;18.20;99.90;;;;;;5080108;28;20207;-84
2021/07/13 06:47:40;;;;;;;9.53;8.27;;;18.20;99.90;;;;;;5080195;28;20212;-84
2021/07/13 06:50:06;;;;;;;15.13;9.57;;;18.10;99.90;;;;;;5080405;28;20211;-84
2021/07/13 06:52:32;;;;;;;10.27;8.50;;;18.00;99.90;;;;;;5079144;28;20316;-84
2021/07/13 06:55:02;;;;;;;10.67;8.87;;;18.00;99.90;;;;;;5081038;28;20645;-84
2021/07/13 06:57:27;;;;;;;12.67;9.07;;;18.00;99.90;;;;;;5079659;28;20194;-84
2021/07/13 06:59:59;;;;;;;11.67;10.13;;;17.90;99.90;;;;;;5082898;28;20206;-83
2021/07/13 07:02:25;;;;;;;13.00;10.57;;;17.90;99.90;;;;;;5080177;28;20179;-84
2021/07/13 07:04:51;;;;;;;11.50;9.30;;;17.90;99.90;;;;;;5079074;28;20587;-84
2021/07/13 07:07:16;;;;;;;11.63;9.73;;;17.80;99.90;;;;;;5078315;28;20206;-84
2021/07/13 07:09:42;;;;;;;13.60;11.33;;;17.80;99.90;;;;;;5079429;28;20224;-84
2021/07/13 07:12:08;;;;;;;12.80;11.00;;;17.80;99.90;;;;;;5079192;28;20178;-84
2021/07/13 07:14:33;;;;;;;12.03;10.60;;;17.70;99.90;;;;;;5079165;28;20623;-84
2021/07/13 07:16:59;;;;;;;13.07;11.17;;;17.70;99.90;;;;;;5079264;28;20240;-84
2021/07/13 07:19:25;;;;;;;18.10;11.33;;;17.70;99.90;;;;;;5083376;28;20167;-84
2021/07/13 07:21:50;;;;;;;17.10;12.27;;;17.70;99.90;;;;;;5086720;28;20532;-84
2021/07/13 07:24:16;;;;;;;14.27;12.77;;;17.60;99.90;;;;;;5078137;28;20631;-84
2021/07/13 07:26:42;;;;;;;12.27;11.07;;;17.60;99.90;;;;;;5079203;28;20244;-84
2021/07/13 07:29:07;;;;;;;13.17;11.83;;;17.60;99.90;;;;;;5078902;28;20201;-84
2021/07/13 07:31:33;;;;;;;11.20;9.70;;;17.70;99.90;;;;;;5077505;28;20190;-84
2021/07/13 07:33:59;;;;;;;8.13;7.13;;;17.60;99.90;;;;;;5079807;28;20252;-84
2021/07/13 07:36:27;;;;;;;6.60;5.90;;;17.60;99.90;;;;;;5079255;28;20216;-84
2021/07/13 07:38:53;;;;;;;3.70;3.23;;;17.60;99.90;;;;;;5079601;28;20173;-84
2021/07/13 07:41:20;;;;;;;2.60;2.30;;;17.50;99.90;;;;;;5079037;28;20213;-84
2021/07/13 07:43:46;;;;;;;2.20;1.50;;;17.50;99.90;;;;;;5078380;28;20181;-85
2021/07/13 07:46:12;;;;;;;1.20;1.03;;;17.40;99.90;;;;;;5078887;28;20177;-85
2021/07/13 07:48:38;;;;;;;1.33;1.00;;;17.50;99.90;;;;;;5079821;28;20262;-84
2021/07/13 07:51:04;;;;;;;1.20;0.80;;;17.40;99.90;;;;;;5081377;28;20666;-84
2021/07/13 07:53:29;;;;;;;2.17;0.80;;;17.40;99.90;;;;;;5083526;28;20670;-85
2021/07/13 07:55:56;;;;;;;0.70;0.40;;;17.40;99.90;;;;;;5084908;28;20197;-85
2021/07/13 07:58:22;;;;;;;0.70;0.63;;;17.40;99.90;;;;;;5084825;28;20247;-85
2021/07/13 08:00:48;;;;;;;0.47;0.43;;;17.30;99.90;;;;;;5086268;28;20612;-84
2021/07/13 08:03:14;;;;;;;2.00;0.40;;;17.30;99.90;;;;;;5085199;28;20182;-85
2021/07/13 08:05:40;;;;;;;0.80;0.43;;;17.30;99.90;;;;;;5085653;28;20174;-85
2021/07/13 08:08:07;;;;;;;0.40;0.40;;;17.30;99.90;;;;;;5085642;28;20201;-85
2021/07/13 08:10:33;;;;;;;0.40;0.40;;;17.10;99.90;;;;;;5085620;28;20189;-84
2021/07/13 08:13:00;;;;;;;1.93;0.40;;;16.90;99.90;;;;;;5084746;28;20241;-85
2021/07/13 08:15:26;;;;;;;1.57;0.60;;;16.60;99.90;;;;;;5085302;28;20167;-86
2021/07/13 08:17:53;;;;;;;0.40;0.40;;;16.50;99.90;;;;;;5082793;28;20177;-86
2021/07/13 08:20:20;;;;;;;0.30;0.30;;;16.40;99.90;;;;;;5085892;28;20219;-85
2021/07/13 08:22:47;;;;;;;4.20;0.50;;;16.40;99.90;;;;;;5089455;28;20192;-85
2021/07/13 08:25:18;;;;;;;1.10;0.50;;;16.40;99.90;;;;;;5083468;28;20166;-85
2021/07/13 08:27:45;;;;;;;1.20;0.40;;;16.40;99.90;;;;;;5082665;28;20690;-86
2021/07/13 08:30:12;;;;;;;0.30;0.30;;;16.50;99.90;;;;;;5082733;28;20260;-85
2021/07/13 08:32:38;;;;;;;1.83;0.40;;;16.50;99.90;;;;;;5084103;28;20189;-86
2021/07/13 08:35:05;;;;;;;0.40;0.40;;;16.40;99.90;;;;;;5082575;28;20652;-85
2021/07/13 08:37:33;;;;;;;0.20;0.20;;;16.40;99.90;;;;;;5082764;28;20174;-85
2021/07/13 08:39:59;;;;;;;0.30;0.30;;;16.30;99.90;;;;;;5084404;28;20202;-85
2021/07/13 08:42:25;;;;;;;1.00;0.40;;;16.20;99.90;;;;;;5078809;28;20174;-85
2021/07/13 08:44:51;;;;;;;0.57;0.40;;;16.10;99.90;;;;;;5080865;28;20205;-85
2021/07/13 08:47:18;;;;;;;0.30;0.30;;;16.00;99.90;;;;;;5084455;28;20630;-85
2021/07/13 08:49:45;;;;;;;5.00;0.40;;;15.80;99.90;;;;;;5080236;28;20287;-85
2021/07/13 08:52:11;;;;;;;0.60;0.50;;;15.80;99.90;;;;;;5079635;28;20179;-85
2021/07/13 08:54:38;;;;;;;0.97;0.30;;;15.80;99.90;;;;;;5081559;28;20198;-85
2021/07/13 08:57:04;;;;;;;1.00;0.50;;;15.90;99.90;;;;;;5085049;28;20165;-85
2021/07/13 08:59:29;;;;;;;3.40;0.50;;;15.80;99.90;;;;;;5087117;28;20634;-85
2021/07/13 09:01:55;;;;;;;2.30;0.60;;;16.00;99.90;;;;;;5085135;28;20588;-85
2021/07/13 09:04:32;;;;;;;0.50;0.50;;;16.00;99.90;;;;;;5087579;28;20169;-85
2021/07/13 09:06:58;;;;;;;0.37;0.37;;;16.00;99.90;;;;;;5088512;28;20507;-84
2021/07/13 09:09:25;;;;;;;0.40;0.30;;;16.00;99.90;;;;;;5086079;28;20256;-85
2021/07/13 09:12:07;;;;;;;0.63;0.50;;;15.80;99.90;;;;;;5083403;28;20220;-85
2021/07/13 09:14:46;;;;;;;0.40;0.40;;;15.80;99.90;;;;;;5084361;28;20173;-85
2021/07/13 09:17:36;;;;;;;0.50;0.50;;;15.70;99.90;;;;;;5083660;28;20230;-85
2021/07/13 09:20:07;;;;;;;4.63;0.50;;;15.70;99.90;;;;;;5083995;28;20555;-86
2021/07/13 09:22:34;;;;;;;10.73;1.00;;;15.80;99.90;;;;;;5084268;28;20223;-85
2021/07/13 09:25:00;;;;;;;0.70;0.70;;;15.80;99.90;;;;;;5084398;28;20391;-84
2021/07/13 09:27:28;;;;;;;1.47;0.60;;;15.70;99.90;;;;;;5082305;28;20748;-86
2021/07/13 09:29:54;;;;;;;0.53;0.50;;;15.60;99.90;;;;;;5084064;28;20223;-85
2021/07/13 09:32:28;;;;;;;0.53;0.50;;;15.60;99.90;;;;;;5083062;28;20629;-85
2021/07/13 09:35:17;;;;;;;0.63;0.50;;;15.60;99.90;;;;;;5085705;28;20168;-86
2021/07/13 09:37:47;;;;;;;0.97;0.53;;;15.60;99.90;;;;;;5086659;28;20177;-85
2021/07/13 09:40:17;;;;;;;0.73;0.50;;;15.60;99.90;;;;;;5087565;28;20235;-85
2021/07/13 09:42:51;;;;;;;0.50;0.50;;;15.70;99.90;;;;;;5084936;28;20195;-85
2021/07/13 09:45:23;;;;;;;2.47;0.50;;;15.70;99.90;;;;;;5080205;28;20669;-84
2021/07/13 09:47:51;;;;;;;0.90;0.50;;;15.60;99.90;;;;;;5078651;28;20200;-85
2021/07/13 09:50:42;;;;;;;0.50;0.50;;;15.50;99.90;;;;;;5081022;28;20193;-85
2021/07/13 09:53:15;;;;;;;0.83;0.30;;;15.40;99.90;;;;;;5081770;28;20179;-85
2021/07/13 09:55:42;;;;;;;0.50;0.40;;;15.30;99.90;;;;;;5081249;28;20217;-85
2021/07/13 09:58:11;;;;;;;0.60;0.47;;;15.10;99.90;;;;;;5077396;28;20215;-85
2021/07/13 10:00:42;;;;;;;0.40;0.40;;;15.20;99.90;;;;;;5077578;28;20223;-85
2021/07/13 10:03:11;;;;;;;0.37;0.37;;;15.10;99.90;;;;;;5085815;28;20169;-84
2021/07/13 10:05:39;;;;;;;0.87;0.40;;;15.00;99.90;;;;;;5084727;28;20627;-85
2021/07/13 10:08:07;;;;;;;1.17;0.60;;;15.00;99.90;;;;;;5084785;28;20222;-85
2021/07/13 10:10:33;;;;;;;0.47;0.40;;;14.90;99.90;;;;;;5085883;28;20197;-85
2021/07/13 10:13:00;;;;;;;0.40;0.40;;;14.80;99.90;;;;;;5086125;28;20282;-84
2021/07/13 10:15:26;;;;;;;0.87;0.40;;;14.80;99.90;;;;;;5086772;28;20197;-83
2021/07/13 10:17:52;;;;;;;0.60;0.57;;;14.60;99.90;;;;;;5084201;28;20177;-84
2021/07/13 10:20:22;;;;;;;0.40;0.40;;;14.50;99.90;;;;;;5083110;28;20287;-85
2021/07/13 10:22:50;;;;;;;0.40;0.40;;;14.50;99.90;;;;;;5082267;28;20212;-85
2021/07/13 10:25:16;;;;;;;0.50;0.50;;;14.40;99.90;;;;;;5080340;28;20638;-85
2021/07/13 10:27:53;;;;;;;0.87;0.40;;;14.30;99.90;;;;;;5081916;28;20228;-84
2021/07/13 10:30:22;;;;;;;0.60;0.40;;;14.30;99.90;;;;;;5080496;28;20197;-84
2021/07/13 10:32:47;;;;;;;0.30;0.30;;;14.20;99.90;;;;;;5081165;28;20180;-84
2021/07/13 10:35:39;;;;;;;0.60;0.40;;;14.10;99.90;;;;;;5081040;28;20180;-83
2021/07/13 10:38:14;;;;;;;0.63;0.40;;;13.90;99.90;;;;;;5079917;28;20211;-84
2021/07/13 10:40:40;;;;;;;0.80;0.50;;;13.80;99.90;;;;;;5079504;28;20287;-84
2021/07/13 10:43:19;;;;;;;3.33;0.50;;;13.80;99.90;;;;;;5079021;28;20180;-83
2021/07/13 10:45:46;;;;;;;0.63;0.60;;;13.70;99.90;;;;;;5079912;28;20172;-83
2021/07/13 10:48:17;;;;;;;0.47;0.40;;;13.60;99.90;;;;;;5083368;28;20189;-83
2021/07/13 10:51:01;;;;;;;8.13;0.60;;;13.50;99.90;;;;;;5084765;28;20246;-84
2021/07/13 10:53:41;;;;;;;4.83;0.70;;;13.30;99.90;;;;;;5080868;28;20169;-84
2021/07/13 10:56:11;;;;;;;2.13;0.80;;;13.30;99.90;;;;;;5078222;28;20165;-82
2021/07/13 10:58:39;;;;;;;6.33;1.07;;;13.20;99.90;;;;;;5078373;28;20238;-83
2021/07/13 11:01:06;;;;;;;7.53;0.90;;;13.10;99.90;;;;;;5078504;28;20223;-83
2021/07/13 11:03:32;;;;;;;1.47;0.50;;;13.00;99.90;;;;;;5084380;28;20173;-83
2021/07/13 11:06:04;;;;;;;2.00;0.40;;;13.00;99.90;;;;;;5080668;28;20183;-85
2021/07/13 11:08:39;;;;;;;1.33;0.57;;;12.90;99.90;;;;;;5078439;28;20193;-84
2021/07/13 11:11:09;;;;;;;0.70;0.43;;;12.80;99.90;;;;;;5078249;28;20204;-83
2021/07/13 11:13:36;;;;;;;0.37;0.37;;;12.80;99.90;;;;;;5077671;28;20161;-82
2021/07/13 11:16:03;;;;;;;0.70;0.60;;;12.80;99.90;;;;;;5077404;28;20216;-82
2021/07/13 11:18:34;;;;;;;0.80;0.63;;;12.80;99.90;;;;;;5077544;28;20220;-83
2021/07/13 11:21:42;;;;;;;0.83;0.60;;;12.80;99.90;;;;;;5076573;28;20197;-83
2021/07/13 11:24:14;;;;;;;0.77;0.50;;;12.80;99.90;;;;;;5075501;28;20185;-83
2021/07/13 11:26:47;;;;;;;2.70;0.53;;;12.80;99.90;;;;;;5075880;28;20185;-83
2021/07/13 11:29:21;;;;;;;1.00;0.40;;;12.90;99.90;;;;;;5074815;28;20192;-84
2021/07/13 11:31:49;;;;;;;0.43;0.40;;;13.00;99.90;;;;;;5077040;28;20182;-83
2021/07/13 11:34:18;;;;;;;2.33;0.70;;;13.10;99.90;;;;;;5083851;28;20207;-85
2021/07/13 11:36:48;;;;;;;0.70;0.70;;;13.30;99.90;;;;;;5080597;28;20227;-84
2021/07/13 11:39:32;;;;;;;0.50;0.50;;;13.40;99.90;;;;;;5080458;28;20238;-85
2021/07/13 11:42:09;;;;;;;1.20;0.40;;;13.60;99.90;;;;;;5080942;28;20182;-84
2021/07/13 11:44:39;;;;;;;1.33;0.50;;;13.60;99.90;;;;;;5079566;28;20184;-85
2021/07/13 11:47:16;;;;;;;0.77;0.60;;;13.60;99.90;;;;;;5081317;28;20161;-85
2021/07/13 11:49:43;;;;;;;0.50;0.50;;;13.60;99.90;;;;;;5080355;28;20189;-85
2021/07/13 11:52:11;;;;;;;0.63;0.57;;;13.70;99.90;;;;;;5081444;28;20168;-85
2021/07/13 11:54:42;;;;;;;4.83;0.60;;;13.70;99.90;;;;;;5082155;28;20639;-85
2021/07/13 11:57:13;;;;;;;6.90;0.53;;;13.70;99.90;;;;;;5082445;28;20161;-85
2021/07/13 11:59:39;;;;;;;0.50;0.50;;;13.80;99.90;;;;;;5082865;28;20200;-85
2021/07/13 12:02:08;;;;;;;0.40;0.40;;;13.90;99.90;;;;;;5080786;28;20537;-85
2021/07/13 12:04:44;;;;;;;4.27;0.50;;;14.00;99.90;;;;;;5082419;28;20187;-85
2021/07/13 12:07:10;;;;;;;1.07;0.40;;;14.30;99.90;;;;;;5081002;28;20172;-85
2021/07/13 12:09:37;;;;;;;0.83;0.40;;;14.50;99.90;;;;;;5081461;28;20191;-85
2021/07/13 12:12:16;;;;;;;0.30;0.30;;;14.80;99.90;;;;;;5083127;28;20196;-85
2021/07/13 12:14:56;;;;;;;0.90;0.60;;;15.00;99.90;;;;;;5083095;28;20180;-85
2021/07/13 12:17:26;;;;;;;0.73;0.63;;;15.00;99.90;;;;;;5081109;28;20181;-86
2021/07/13 12:19:54;;;;;;;1.00;0.60;;;15.00;99.90;;;;;;5081656;28;20223;-85
2021/07/13 12:22:21;;;;;;;0.60;0.60;;;15.00;99.90;;;;;;5085986;28;20233;-85
2021/07/13 12:24:48;;;;;;;0.60;0.60;;;15.10;99.90;;;;;;5081002;28;20307;-86
2021/07/13 12:27:18;;;;;;;0.50;0.50;;;15.10;99.90;;;;;;5077441;28;20174;-87
2021/07/13 12:29:54;;;;;;;0.80;0.60;;;15.00;99.90;;;;;;5078118;28;20666;-86
2021/07/13 12:32:25;;;;;;;0.53;0.50;;;14.90;99.90;;;;;;5079227;28;20600;-85
2021/07/13 12:34:52;;;;;;;1.00;0.80;;;14.70;99.90;;;;;;5078516;28;20200;-86
2021/07/13 12:37:32;;;;;;;2.20;0.63;;;14.70;99.90;;;;;;5081149;28;20634;-85
2021/07/13 12:40:01;;;;;;;0.87;0.70;;;14.50;99.90;;;;;;5081715;28;20220;-85
2021/07/13 12:42:42;;;;;;;0.83;0.50;;;14.50;99.90;;;;;;5083785;28;20173;-86
2021/07/13 12:45:13;;;;;;;2.00;0.70;;;14.50;99.90;;;;;;5080918;28;20169;-86
2021/07/13 12:47:47;;;;;;;1.03;0.60;;;14.50;99.90;;;;;;5083525;28;20699;-86
2021/07/13 12:50:21;;;;;;;1.07;0.70;;;14.50;99.90;;;;;;5082316;28;20257;-86
2021/07/13 12:52:52;;;;;;;1.10;0.90;;;14.50;99.90;;;;;;5080950;28;20180;-86